Time;durP1;ratioP1;P1;durP2;ratioP2;P2;SDS_P1;SDS_P2;PMS_P1;PMS_P2;Temp;Humidity;BMP_temperature;BMP_pressure;BME280_temperature;BME280_humidity;BME280_pressure;Samples;Min_cycle;Max_cycle;Signal;HPM_P1;HPM_P2
2023/05/11 00:01:03;;;;;;;19.40;16.75;;;;;;;13.69;83.98;101340.13;5011824;28;20029;-61
2023/05/11 00:03:28;;;;;;;20.65;17.83;;;;;;;13.67;83.91;101336.72;5025369;28;20029;-61
2023/05/11 00:05:53;;;;;;;19.08;17.08;;;;;;;13.68;83.76;101341.22;5031754;28;20033;-61
2023/05/11 00:08:19;;;;;;;19.98;16.90;;;;;;;13.70;83.84;101331.47;5031147;28;20465;-61
2023/05/11 00:10:47;;;;;;;18.63;16.70;;;;;;;13.70;83.85;101336.22;5031131;28;20116;-61
2023/05/11 00:13:12;;;;;;;21.63;17.20;;;;;;;13.69;84.13;101324.22;5030394;28;20049;-61
2023/05/11 00:15:38;;;;;;;19.83;17.75;;;;;;;13.70;83.96;101325.91;5020569;28;20029;-61
2023/05/11 00:18:03;;;;;;;19.63;17.40;;;;;;;13.70;84.20;101327.84;5010090;28;20029;-60
2023/05/11 00:20:28;;;;;;;20.30;18.10;;;;;;;13.71;84.38;101326.72;5028145;28;20481;-61
2023/05/11 00:22:54;;;;;;;21.30;18.00;;;;;;;13.69;84.31;101317.81;5031070;28;20030;-61
2023/05/11 00:25:19;;;;;;;19.48;17.15;;;;;;;13.71;84.16;101318.38;5030742;28;20048;-61
2023/05/11 00:27:44;;;;;;;23.42;17.50;;;;;;;13.69;84.30;101309.44;5031134;28;20089;-60
2023/05/11 00:30:11;;;;;;;19.83;17.70;;;;;;;13.71;84.37;101312.78;5026990;28;20038;-60
2023/05/11 00:32:36;;;;;;;23.20;19.35;;;;;;;13.71;84.49;101322.00;5028229;28;20171;-60
2023/05/11 00:35:01;;;;;;;20.15;17.65;;;;;;;13.70;84.10;101325.06;5011163;28;20520;-61
2023/05/11 00:37:27;;;;;;;20.50;18.02;;;;;;;13.70;84.28;101330.63;5010985;28;20041;-61
2023/05/11 00:39:52;;;;;;;21.80;18.08;;;;;;;13.68;84.10;101336.50;5010849;28;20029;-61
2023/05/11 00:42:17;;;;;;;22.88;19.23;;;;;;;13.66;84.13;101337.84;5011383;28;20474;-61
2023/05/11 00:44:43;;;;;;;22.15;18.45;;;;;;;13.65;83.89;101330.59;5010436;28;20034;-60
2023/05/11 00:47:08;;;;;;;22.80;18.95;;;;;;;13.62;84.09;101333.91;5011068;28;20381;-61
2023/05/11 00:49:34;;;;;;;24.90;19.98;;;;;;;13.61;84.01;101341.44;5011358;28;20042;-60
2023/05/11 00:52:01;;;;;;;23.33;18.23;;;;;;;13.63;83.61;101335.56;5013261;28;20048;-60
2023/05/11 00:54:27;;;;;;;22.05;19.15;;;;;;;13.65;83.66;101338.97;5031137;28;20041;-61
2023/05/11 00:56:52;;;;;;;22.20;18.15;;;;;;;13.63;83.76;101341.16;5030923;28;20029;-61
2023/05/11 00:59:18;;;;;;;26.55;19.23;;;;;;;13.65;83.62;101348.16;5029697;28;20028;-60
2023/05/11 01:01:43;;;;;;;27.15;20.20;;;;;;;13.61;83.61;101344.22;5030912;28;20508;-60
2023/05/11 01:04:09;;;;;;;22.58;19.23;;;;;;;13.60;83.70;101341.69;5030315;28;20029;-60
2023/05/11 01:06:50;;;;;;;23.30;20.17;;;;;;;13.59;83.96;101349.19;5018410;28;20034;-64
2023/05/11 01:09:28;;;;;;;22.20;19.45;;;;;;;13.61;84.22;101346.16;5022279;28;20037;-61
2023/05/11 01:12:07;;;;;;;22.42;19.48;;;;;;;13.61;84.01;101343.38;5030098;28;20029;-61
2023/05/11 01:14:43;;;;;;;23.38;20.00;;;;;;;13.60;84.10;101345.31;5029808;28;20046;-61
2023/05/11 01:17:20;;;;;;;26.17;20.98;;;;;;;13.59;84.02;101340.84;5030379;28;20366;-61
2023/05/11 01:19:50;;;;;;;29.77;20.42;;;;;;;13.58;83.84;101339.16;5029683;28;20473;-61
2023/05/11 01:22:47;;;;;;;24.33;20.50;;;;;;;13.63;84.07;101343.94;5018470;28;20048;-61
2023/05/11 01:25:47;;;;;;;27.30;21.63;;;;;;;13.59;83.93;101346.41;5014999;28;20509;-60
2023/05/11 01:28:54;;;;;;;25.13;20.55;;;;;;;13.63;83.89;101343.94;5025235;28;20099;-61
2023/05/11 01:31:20;;;;;;;25.90;21.60;;;;;;;13.60;83.68;101347.28;5016378;28;20409;-61
2023/05/11 01:33:56;;;;;;;27.83;20.85;;;;;;;13.60;83.85;101348.13;5028778;28;20105;-61
2023/05/11 01:36:27;;;;;;;27.15;20.70;;;;;;;13.54;83.88;101348.31;5010610;28;20026;-61
2023/05/11 01:38:56;;;;;;;31.30;22.40;;;;;;;13.55;83.76;101350.81;5010626;28;20457;-61
2023/05/11 01:41:23;;;;;;;30.05;22.08;;;;;;;13.53;83.43;101343.84;5010187;28;20026;-61
2023/05/11 01:43:56;;;;;;;27.88;21.55;;;;;;;13.53;83.79;101346.63;5013641;28;20044;-61
2023/05/11 01:46:25;;;;;;;29.10;21.63;;;;;;;13.52;83.97;101351.38;5010253;28;20065;-61
2023/05/11 01:48:53;;;;;;;29.55;22.35;;;;;;;13.50;83.92;101343.25;5009521;28;20018;-61
2023/05/11 01:51:19;;;;;;;28.92;22.90;;;;;;;13.49;83.98;101343.53;5009528;28;20038;-61
2023/05/11 01:53:46;;;;;;;29.00;22.85;;;;;;;13.49;84.00;101341.56;5009862;28;20517;-61
2023/05/11 01:56:13;;;;;;;31.10;23.13;;;;;;;13.48;84.07;101350.22;5009457;28;20083;-61
2023/05/11 01:58:40;;;;;;;30.58;22.55;;;;;;;13.51;83.85;101347.72;5013399;28;20152;-61
2023/05/11 02:01:07;;;;;;;28.35;23.05;;;;;;;13.50;84.15;101354.41;5016927;28;20032;-61
2023/05/11 02:03:35;;;;;;;28.10;22.42;;;;;;;13.49;83.99;101349.09;5024419;28;20021;-60
2023/05/11 02:06:04;;;;;;;28.48;22.08;;;;;;;13.48;84.32;101351.03;5021572;28;20030;-61
2023/05/11 02:08:31;;;;;;;29.65;22.95;;;;;;;13.50;83.95;101345.19;5027031;28;20122;-61
2023/05/11 02:10:58;;;;;;;29.23;22.77;;;;;;;13.49;84.17;101354.69;5032068;28;20464;-61
2023/05/11 02:13:26;;;;;;;29.17;23.27;;;;;;;13.45;84.35;101345.16;5033800;28;20052;-61
2023/05/11 02:15:55;;;;;;;33.65;23.52;;;;;;;13.47;84.69;101343.75;5032186;28;20037;-61
2023/05/11 02:18:20;;;;;;;31.98;24.50;;;;;;;13.49;84.22;101340.72;5018120;28;20037;-62
2023/05/11 02:20:46;;;;;;;32.63;24.13;;;;;;;13.46;84.25;101333.72;5012916;28;20033;-61
2023/05/11 02:23:13;;;;;;;32.78;25.13;;;;;;;13.47;84.56;101332.59;5017407;28;20021;-61
2023/05/11 02:25:39;;;;;;;33.05;25.27;;;;;;;13.48;84.48;101333.47;5019170;28;20030;-61
2023/05/11 02:28:05;;;;;;;32.05;24.60;;;;;;;13.46;84.22;101330.94;5013251;28;20034;-61
2023/05/11 02:30:33;;;;;;;36.50;26.75;;;;;;;13.44;84.28;101338.72;5017960;28;20476;-61
2023/05/11 02:33:05;;;;;;;34.95;25.00;;;;;;;13.43;84.29;101337.03;5026621;28;20029;-61
2023/05/11 02:35:36;;;;;;;38.40;26.55;;;;;;;13.43;84.26;101334.22;5013185;28;20030;-61
2023/05/11 02:38:03;;;;;;;34.67;26.92;;;;;;;13.44;84.08;101333.16;5012345;28;20033;-61
2023/05/11 02:40:32;;;;;;;36.25;26.77;;;;;;;13.41;84.09;101343.97;5019310;28;20070;-61
2023/05/11 02:43:10;;;;;;;35.85;27.05;;;;;;;13.42;84.59;101338.13;5018259;28;20030;-61
2023/05/11 02:45:37;;;;;;;34.20;26.42;;;;;;;13.38;84.25;101339.75;5011537;28;20041;-61
2023/05/11 02:48:10;;;;;;;35.83;26.88;;;;;;;13.37;84.68;101346.44;5031729;28;20120;-61
2023/05/11 02:50:39;;;;;;;36.20;28.05;;;;;;;13.42;84.27;101346.50;5020437;28;20087;-61
2023/05/11 02:53:13;;;;;;;40.22;29.25;;;;;;;13.39;84.22;101338.66;5027541;28;20040;-61
2023/05/11 02:55:39;;;;;;;36.88;29.42;;;;;;;13.38;84.14;101336.97;5013095;28;20056;-60
2023/05/11 02:58:05;;;;;;;40.95;29.60;;;;;;;13.41;84.51;101332.81;5012509;28;20088;-60
2023/05/11 03:00:30;;;;;;;36.13;29.80;;;;;;;13.40;84.57;101334.78;5015023;28;20041;-60
2023/05/11 03:02:56;;;;;;;38.22;28.98;;;;;;;13.41;84.16;101333.66;5031943;28;20115;-61
2023/05/11 03:05:23;;;;;;;37.17;28.65;;;;;;;13.39;84.12;101335.84;5019300;28;20485;-61
2023/05/11 03:07:48;;;;;;;34.95;28.52;;;;;;;13.40;84.19;101343.16;5012247;28;20029;-61
2023/05/11 03:10:13;;;;;;;36.80;29.15;;;;;;;13.38;83.98;101348.13;5014927;28;20457;-61
2023/05/11 03:12:39;;;;;;;36.08;28.80;;;;;;;13.38;83.79;101350.06;5019573;28;20033;-61
2023/05/11 03:15:06;;;;;;;36.55;29.25;;;;;;;13.35;83.81;101350.59;5020477;28;20045;-61
2023/05/11 03:17:32;;;;;;;34.75;29.92;;;;;;;13.34;83.96;101349.75;5016409;28;20069;-61
2023/05/11 03:19:58;;;;;;;40.78;30.20;;;;;;;13.34;83.76;101349.75;5015458;28;20035;-61
2023/05/11 03:22:25;;;;;;;39.60;30.92;;;;;;;13.31;84.04;101350.25;5032823;28;20034;-61
2023/05/11 03:24:51;;;;;;;40.28;29.90;;;;;;;13.31;83.75;101355.00;5021238;28;20116;-61
2023/05/11 03:27:17;;;;;;;37.30;29.45;;;;;;;13.31;83.47;101355.00;5027051;28;20137;-61
2023/05/11 03:29:44;;;;;;;38.85;30.75;;;;;;;13.27;83.35;101354.66;5021545;28;20442;-61
2023/05/11 03:32:10;;;;;;;42.38;31.77;;;;;;;13.26;83.27;101348.25;5020723;28;20036;-61
2023/05/11 03:34:35;;;;;;;38.65;30.25;;;;;;;13.25;83.21;101351.31;5029352;28;20037;-61
2023/05/11 03:37:01;;;;;;;39.35;31.92;;;;;;;13.21;83.58;101353.75;5032612;28;20033;-61
2023/05/11 03:39:30;;;;;;;41.08;30.77;;;;;;;13.19;83.54;101350.34;5030951;28;20025;-63
2023/05/11 03:41:56;;;;;;;38.45;30.45;;;;;;;13.20;83.26;101349.28;5011784;28;20052;-61
2023/05/11 03:44:23;;;;;;;42.50;32.28;;;;;;;13.17;83.39;101346.16;5016383;28;20017;-61
2023/05/11 03:46:49;;;;;;;44.13;31.63;;;;;;;13.13;83.06;101343.03;5031732;28;20039;-61
2023/05/11 03:49:16;;;;;;;40.88;30.52;;;;;;;13.17;83.46;101337.78;5023983;28;20056;-61
2023/05/11 03:51:43;;;;;;;39.45;30.58;;;;;;;13.14;83.12;101338.31;5032192;28;20117;-61
2023/05/11 03:54:09;;;;;;;43.33;30.15;;;;;;;13.11;82.72;101342.44;5031849;28;20531;-61
2023/05/11 03:56:36;;;;;;;40.70;30.33;;;;;;;13.10;82.92;101348.28;5015378;28;20500;-61
2023/05/11 03:59:02;;;;;;;40.22;31.38;;;;;;;13.08;82.81;101342.09;5022532;28;20033;-61
2023/05/11 04:01:30;;;;;;;38.58;29.65;;;;;;;13.10;82.87;101353.84;5015814;28;20030;-61
2023/05/11 04:03:55;;;;;;;39.83;31.08;;;;;;;13.08;82.99;101342.94;5015501;28;20025;-61
2023/05/11 04:06:21;;;;;;;40.45;30.85;;;;;;;13.09;82.90;101344.66;5022346;28;20033;-61
2023/05/11 04:08:46;;;;;;;38.83;30.92;;;;;;;13.12;82.97;101344.13;5010804;28;20026;-61
2023/05/11 04:11:11;;;;;;;41.78;31.38;;;;;;;13.10;83.04;101340.75;5012118;28;20080;-61
2023/05/11 04:13:37;;;;;;;39.40;30.30;;;;;;;13.11;82.95;101350.81;5011767;28;20042;-61
2023/05/11 04:16:06;;;;;;;48.08;33.85;;;;;;;13.10;83.24;101353.84;5014441;28;20381;-61
2023/05/11 04:18:31;;;;;;;41.95;32.88;;;;;;;13.11;83.23;101348.00;5010964;28;20092;-62
2023/05/11 04:20:56;;;;;;;46.00;33.15;;;;;;;13.07;83.15;101343.22;5014569;28;20778;-62
2023/05/11 04:23:22;;;;;;;45.47;34.55;;;;;;;13.07;83.44;101346.00;5017286;28;20104;-62
2023/05/11 04:25:53;;;;;;;44.47;33.75;;;;;;;13.09;83.51;101346.59;5028656;28;20559;-60
2023/05/11 04:28:18;;;;;;;46.70;34.65;;;;;;;13.10;83.30;101345.50;5031552;28;20033;-61
2023/05/11 04:30:43;;;;;;;52.08;35.33;;;;;;;13.10;83.43;101351.06;5029248;28;20373;-61
2023/05/11 04:33:09;;;;;;;51.13;36.00;;;;;;;13.07;83.46;101344.06;5030851;28;20030;-61
2023/05/11 04:35:38;;;;;;;50.17;37.33;;;;;;;13.06;83.45;101352.69;5031381;28;20026;-61
2023/05/11 04:38:03;;;;;;;47.38;34.40;;;;;;;13.07;83.31;101346.84;5028992;28;20025;-61
2023/05/11 04:40:28;;;;;;;50.45;36.08;;;;;;;13.08;83.53;101344.91;5013159;28;20041;-61
2023/05/11 04:42:54;;;;;;;49.45;35.78;;;;;;;13.09;83.43;101346.59;5020394;28;20056;-60
2023/05/11 04:45:19;;;;;;;49.45;36.35;;;;;;;13.07;83.33;101349.63;5030239;28;20052;-61
2023/05/11 04:47:44;;;;;;;53.28;37.55;;;;;;;13.09;83.26;101350.22;5029243;28;20024;-61
2023/05/11 04:50:09;;;;;;;51.15;37.63;;;;;;;13.10;83.24;101353.84;5013638;28;20117;-61
2023/05/11 04:52:35;;;;;;;56.15;39.05;;;;;;;13.11;83.59;101358.31;5010267;28;20022;-60
2023/05/11 04:55:00;;;;;;;51.92;38.05;;;;;;;13.14;83.81;101358.66;5010719;28;20025;-60
2023/05/11 04:57:25;;;;;;;56.65;38.47;;;;;;;13.16;83.57;101370.38;5011100;28;20026;-61
2023/05/11 04:59:51;;;;;;;58.08;39.83;;;;;;;13.18;84.03;101367.34;5009533;28;20061;-60
2023/05/11 05:02:16;;;;;;;56.05;38.88;;;;;;;13.16;83.80;101372.31;5010362;28;20037;-60
2023/05/11 05:04:41;;;;;;;55.08;39.40;;;;;;;13.22;84.26;101369.34;5019970;28;20088;-60
2023/05/11 05:07:07;;;;;;;55.63;39.22;;;;;;;13.23;83.74;101375.81;5014418;28;20033;-60
2023/05/11 05:09:32;;;;;;;54.60;39.25;;;;;;;13.26;83.85;101389.22;5022711;28;20037;-60
2023/05/11 05:11:57;;;;;;;54.22;39.15;;;;;;;13.24;84.11;101383.06;5029461;28;20030;-61
2023/05/11 05:14:22;;;;;;;52.08;37.63;;;;;;;13.27;84.05;101383.38;5010974;28;20064;-60
2023/05/11 05:16:48;;;;;;;54.47;38.25;;;;;;;13.26;83.47;101386.44;5013022;28;20037;-60
2023/05/11 05:19:13;;;;;;;53.28;38.00;;;;;;;13.29;83.73;101387.88;5009492;28;20536;-60
2023/05/11 05:21:39;;;;;;;54.47;37.35;;;;;;;13.32;83.98;101390.13;5022663;28;20132;-61
2023/05/11 05:24:05;;;;;;;54.05;37.95;;;;;;;13.28;84.37;101392.59;5014235;28;20030;-60
2023/05/11 05:26:31;;;;;;;51.50;36.95;;;;;;;13.27;84.11;101388.13;5014570;28;20393;-60
2023/05/11 05:28:56;;;;;;;48.85;35.45;;;;;;;13.26;84.38;101398.44;5017377;28;20025;-60
2023/05/11 05:31:23;;;;;;;54.83;36.05;;;;;;;13.29;83.74;101402.66;5011495;28;20544;-60
2023/05/11 05:33:48;;;;;;;49.47;35.78;;;;;;;13.32;84.14;101399.34;5010470;28;20599;-60
2023/05/11 05:36:13;;;;;;;51.30;37.67;;;;;;;13.32;84.32;101402.13;5014394;28;20069;-60
2023/05/11 05:38:38;;;;;;;49.55;34.75;;;;;;;13.36;83.88;101408.91;5013966;28;20033;-60
2023/05/11 05:41:04;;;;;;;48.85;35.00;;;;;;;13.37;83.82;101410.56;5009643;28;20065;-60
2023/05/11 05:43:29;;;;;;;48.47;34.95;;;;;;;13.35;84.00;101398.81;5017398;28;20033;-60
2023/05/11 05:46:00;;;;;;;52.35;35.88;;;;;;;13.36;84.36;101402.44;5025971;28;20022;-60
2023/05/11 05:48:26;;;;;;;51.55;35.33;;;;;;;13.37;84.11;101402.22;5010266;28;20109;-61
2023/05/11 05:50:51;;;;;;;53.42;35.72;;;;;;;13.40;84.40;101404.50;5010439;28;20029;-61
2023/05/11 05:53:16;;;;;;;52.67;35.13;;;;;;;13.39;84.50;101410.31;5012979;28;20034;-61
2023/05/11 05:55:42;;;;;;;54.58;35.92;;;;;;;13.39;84.42;101408.34;5013645;28;20465;-59
2023/05/11 05:58:07;;;;;;;59.13;38.67;;;;;;;13.39;84.55;101407.50;5010089;28;20021;-61
2023/05/11 06:00:34;;;;;;;52.53;35.67;;;;;;;13.43;84.18;101408.69;5008282;28;20033;-61
2023/05/11 06:02:59;;;;;;;56.80;38.38;;;;;;;13.42;84.69;101419.00;5010133;28;20022;-61
2023/05/11 06:05:25;;;;;;;60.25;39.15;;;;;;;13.44;84.71;101422.38;5007912;28;20096;-62
2023/05/11 06:07:50;;;;;;;64.18;39.63;;;;;;;13.46;84.72;101414.59;5013582;28;20032;-61
2023/05/11 06:10:15;;;;;;;62.92;39.38;;;;;;;13.46;84.69;101422.13;5012799;28;20038;-62
2023/05/11 06:12:41;;;;;;;66.85;40.67;;;;;;;13.50;85.16;101421.34;5015331;28;20029;-62
2023/05/11 06:15:07;;;;;;;64.28;40.83;;;;;;;13.52;84.88;101418.31;5016817;28;20482;-62
2023/05/11 06:17:32;;;;;;;62.92;41.25;;;;;;;13.55;84.61;101417.75;5008699;28;20375;-62
2023/05/11 06:19:57;;;;;;;61.55;39.30;;;;;;;13.60;84.59;101422.59;5011219;28;20397;-62
2023/05/11 06:22:23;;;;;;;62.95;41.25;;;;;;;13.58;85.00;101422.00;5010249;28;20085;-61
2023/05/11 06:24:48;;;;;;;68.00;42.45;;;;;;;13.57;84.14;101421.16;5008874;28;20061;-62
2023/05/11 06:27:16;;;;;;;65.75;42.60;;;;;;;13.60;84.46;101419.81;5009775;28;20096;-62
2023/05/11 06:29:41;;;;;;;71.65;44.20;;;;;;;13.56;84.36;101416.69;5017855;28;20029;-62
2023/05/11 06:32:07;;;;;;;72.07;43.95;;;;;;;13.58;84.20;101424.78;5007569;28;20044;-62
2023/05/11 06:34:32;;;;;;;64.03;42.80;;;;;;;13.59;84.40;101430.09;5009085;28;20067;-64
2023/05/11 06:36:58;;;;;;;67.15;43.58;;;;;;;13.59;84.41;101429.25;5012859;28;20424;-63
2023/05/11 06:39:23;;;;;;;69.07;43.28;;;;;;;13.57;84.81;101426.72;5026820;28;20056;-62
2023/05/11 06:41:51;;;;;;;69.32;43.83;;;;;;;13.56;84.48;101429.75;5025645;28;20470;-63
2023/05/11 06:44:16;;;;;;;66.22;43.08;;;;;;;13.55;84.41;101434.50;5007057;28;20041;-63
2023/05/11 06:46:41;;;;;;;67.95;43.53;;;;;;;13.56;84.20;101432.53;5013022;28;20036;-63
2023/05/11 06:49:07;;;;;;;65.13;43.40;;;;;;;13.59;84.64;101429.25;5012605;28;20038;-64
2023/05/11 06:51:32;;;;;;;65.68;44.65;;;;;;;13.56;84.55;101435.34;5023693;28;20025;-63
2023/05/11 06:53:58;;;;;;;70.57;41.97;;;;;;;13.58;84.21;101438.72;5020164;28;20110;-63
2023/05/11 06:56:23;;;;;;;64.57;41.40;;;;;;;13.56;83.95;101440.91;5015421;28;20022;-63
2023/05/11 06:58:48;;;;;;;64.20;40.17;;;;;;;13.56;84.05;101438.13;5017812;28;20060;-64
2023/05/11 07:01:14;;;;;;;62.75;40.15;;;;;;;13.56;83.77;101441.78;5015261;28;20156;-63
2023/05/11 07:03:39;;;;;;;61.35;40.42;;;;;;;13.54;83.40;101449.56;5020233;28;20106;-63
2023/05/11 07:06:07;;;;;;;57.65;38.40;;;;;;;13.55;83.47;101442.88;5020960;28;20383;-63
2023/05/11 07:08:33;;;;;;;62.90;40.53;;;;;;;13.57;83.24;101449.03;5012720;28;20184;-62
2023/05/11 07:10:58;;;;;;;64.93;41.35;;;;;;;13.57;83.76;101454.63;5020279;28;20034;-62
2023/05/11 07:13:23;;;;;;;64.65;43.42;;;;;;;13.56;83.82;101450.16;5009418;28;20418;-63
2023/05/11 07:15:49;;;;;;;68.50;42.95;;;;;;;13.57;83.09;101445.41;5011321;28;20034;-63
2023/05/11 07:18:14;;;;;;;74.70;45.60;;;;;;;13.59;83.61;101452.41;5010237;28;20057;-63
2023/05/11 07:20:40;;;;;;;71.40;46.38;;;;;;;13.58;83.29;101452.66;5026721;28;20025;-62
2023/05/11 07:23:06;;;;;;;79.53;48.53;;;;;;;13.59;83.87;101451.56;5019788;28;22146;-62
2023/05/11 07:25:31;;;;;;;86.40;50.95;;;;;;;13.58;84.07;101450.72;5028118;28;20117;-62
2023/05/11 07:27:56;;;;;;;92.30;53.38;;;;;;;13.58;83.53;101456.31;5014772;28;20030;-63
2023/05/11 07:30:23;;;;;;;93.50;54.30;;;;;;;13.60;83.35;101454.13;5014975;28;20144;-63
2023/05/11 07:32:48;;;;;;;94.10;55.70;;;;;;;13.63;83.39;101458.31;5010788;28;20053;-64
2023/05/11 07:35:16;;;;;;;103.57;56.65;;;;;;;13.64;83.41;101452.50;5016868;28;20115;-64
2023/05/11 07:37:42;;;;;;;98.85;55.45;;;;;;;13.66;83.53;101455.84;5026004;28;20029;-63
2023/05/11 07:40:07;;;;;;;94.70;54.53;;;;;;;13.67;83.61;101459.47;5023206;28;20830;-64
2023/05/11 07:42:33;;;;;;;92.45;54.67;;;;;;;13.66;83.54;101461.44;5010344;28;20064;-62
2023/05/11 07:44:58;;;;;;;88.07;51.50;;;;;;;13.70;83.89;101456.19;5023407;28;20037;-64
2023/05/11 07:47:24;;;;;;;89.22;52.50;;;;;;;13.69;83.53;101451.72;5014216;28;20030;-64
2023/05/11 07:49:49;;;;;;;85.75;50.70;;;;;;;13.70;83.26;101464.53;5020050;28;20017;-64
2023/05/11 07:52:15;;;;;;;83.80;49.53;;;;;;;13.69;83.28;101463.72;5023482;28;20038;-64
2023/05/11 07:54:41;;;;;;;83.88;51.10;;;;;;;13.73;83.78;101466.81;5024630;28;20084;-64
2023/05/11 07:57:07;;;;;;;89.35;51.50;;;;;;;13.75;83.59;101467.38;5016507;28;20029;-64
2023/05/11 07:59:32;;;;;;;91.18;52.33;;;;;;;13.74;83.36;101474.09;5019451;28;20037;-63
2023/05/11 08:01:58;;;;;;;88.20;53.30;;;;;;;13.71;83.24;101460.66;5025429;28;20485;-64
2023/05/11 08:04:25;;;;;;;97.85;55.38;;;;;;;13.68;82.82;101472.34;5020934;28;20109;-64
2023/05/11 08:06:51;;;;;;;95.97;55.55;;;;;;;13.66;82.95;101472.59;5031716;28;20071;-64
2023/05/11 08:09:16;;;;;;;97.85;55.13;;;;;;;13.66;83.19;101464.22;5022140;28;20473;-63
2023/05/11 08:11:42;;;;;;;99.72;56.53;;;;;;;13.63;82.92;101473.09;5011521;28;20040;-63
2023/05/11 08:14:07;;;;;;;104.65;57.08;;;;;;;13.62;82.84;101476.16;5013315;28;20148;-64
2023/05/11 08:16:33;;;;;;;94.85;55.30;;;;;;;13.60;83.15;101479.22;5010951;28;20037;-64
2023/05/11 08:18:59;;;;;;;97.15;55.38;;;;;;;13.63;82.50;101475.03;5015941;28;20052;-67
2023/05/11 08:21:25;;;;;;;93.95;55.15;;;;;;;13.64;82.87;101476.75;5025363;28;20112;-63
2023/05/11 08:23:50;;;;;;;94.25;56.17;;;;;;;13.64;82.90;101479.53;5021614;28;20029;-63
2023/05/11 08:26:15;;;;;;;94.20;55.22;;;;;;;13.61;82.02;101477.25;5022246;28;20040;-64
2023/05/11 08:28:41;;;;;;;106.25;59.13;;;;;;;13.59;82.26;101477.50;5010709;28;20037;-64
2023/05/11 08:31:06;;;;;;;103.53;57.95;;;;;;;13.62;82.68;101478.94;5017731;28;20030;-62
2023/05/11 08:33:32;;;;;;;97.78;56.72;;;;;;;13.61;82.80;101478.09;5017426;28;20488;-64
2023/05/11 08:35:57;;;;;;;101.95;59.33;;;;;;;13.62;82.78;101479.78;5014054;28;20433;-64
2023/05/11 08:38:22;;;;;;;104.10;58.80;;;;;;;13.63;82.59;101477.84;5017381;28;20132;-63
2023/05/11 08:40:50;;;;;;;104.03;60.03;;;;;;;13.64;82.82;101479.53;5022252;28;20037;-64
2023/05/11 08:43:17;;;;;;;103.85;59.28;;;;;;;13.67;82.99;101470.63;5009346;28;20045;-64
2023/05/11 08:45:46;;;;;;;106.55;59.35;;;;;;;13.68;83.30;101472.34;5024307;28;20445;-64
2023/05/11 08:48:14;;;;;;;101.68;59.40;;;;;;;13.71;82.62;101474.59;5018476;28;20030;-64
2023/05/11 08:50:40;;;;;;;104.45;59.42;;;;;;;13.75;82.98;101489.72;5023488;28;20396;-64
2023/05/11 08:53:06;;;;;;;102.93;59.13;;;;;;;13.74;82.05;101477.72;5010634;28;20034;-64
2023/05/11 08:55:32;;;;;;;102.60;58.78;;;;;;;13.75;82.22;101475.75;5023586;28;20029;-64
2023/05/11 08:58:00;;;;;;;110.28;60.05;;;;;;;13.74;82.16;101479.66;5014067;28;20048;-64
2023/05/11 09:00:28;;;;;;;110.22;60.85;;;;;;;13.79;81.98;101476.09;5011141;28;20036;-64
2023/05/11 09:02:53;;;;;;;109.72;61.47;;;;;;;13.81;82.19;101485.06;5011230;28;20377;-64
2023/05/11 09:05:19;;;;;;;114.35;61.83;;;;;;;13.82;81.44;101484.78;5010005;28;20026;-64
2023/05/11 09:07:46;;;;;;;110.32;63.88;;;;;;;13.85;82.10;101487.06;5013036;28;20755;-63
2023/05/11 09:10:12;;;;;;;110.05;62.20;;;;;;;13.89;81.94;101485.44;5009769;28;20120;-64
2023/05/11 09:12:37;;;;;;;107.53;61.80;;;;;;;13.95;81.51;101489.13;5009722;28;20448;-64
2023/05/11 09:15:03;;;;;;;112.00;63.85;;;;;;;14.00;81.95;101494.78;5009043;28;20030;-64
2023/05/11 09:17:28;;;;;;;115.80;63.90;;;;;;;14.03;81.75;101485.03;5011244;28;20424;-64
2023/05/11 09:20:04;;;;;;;110.72;62.85;;;;;;;14.06;81.02;101493.72;5015996;28;20037;-64
2023/05/11 09:22:32;;;;;;;106.47;61.13;;;;;;;14.10;81.52;101489.31;5018417;28;20029;-65
2023/05/11 09:24:58;;;;;;;103.60;60.38;;;;;;;14.14;80.59;101484.06;5022248;28;20033;-64
2023/05/11 09:27:24;;;;;;;101.57;58.97;;;;;;;14.17;80.53;101481.59;5011727;28;20022;-64
2023/05/11 09:29:51;;;;;;;103.38;58.20;;;;;;;14.18;80.32;101490.78;5010311;28;20076;-64
2023/05/11 09:32:17;;;;;;;106.35;61.08;;;;;;;14.21;80.87;101482.75;5009181;28;20073;-63
2023/05/11 09:34:42;;;;;;;100.45;58.75;;;;;;;14.24;80.48;101490.59;5019022;28;20060;-63
2023/05/11 09:37:15;;;;;;;108.25;60.65;;;;;;;14.29;80.56;101488.97;5023735;28;20038;-63
2023/05/11 09:39:44;;;;;;;107.70;58.38;;;;;;;14.30;79.98;101485.91;5016802;28;20109;-64
2023/05/11 09:42:17;;;;;;;107.75;61.22;;;;;;;14.32;80.32;101488.47;5009663;28;20080;-63
2023/05/11 09:44:44;;;;;;;99.18;57.63;;;;;;;14.32;80.15;101489.28;5011106;28;20037;-63
2023/05/11 09:47:14;;;;;;;105.45;59.03;;;;;;;14.33;79.69;101482.59;5017862;28;20033;-63
2023/05/11 09:49:44;;;;;;;109.03;61.03;;;;;;;14.31;79.43;101486.78;5010936;28;20034;-63
2023/05/11 09:52:13;;;;;;;108.50;59.22;;;;;;;14.34;79.92;101491.81;5018718;28;20469;-63
2023/05/11 09:54:41;;;;;;;107.38;59.65;;;;;;;14.31;79.38;101489.56;5016425;28;20029;-63
2023/05/11 09:57:21;;;;;;;103.78;57.10;;;;;;;14.33;79.52;101490.97;5010410;28;20049;-62
2023/05/11 09:59:46;;;;;;;106.13;60.20;;;;;;;14.34;79.54;101501.03;5009237;28;20474;-63
2023/05/11 10:02:26;;;;;;;104.88;58.60;;;;;;;14.31;79.26;101498.78;5008714;28;20048;-63
2023/05/11 10:04:53;;;;;;;102.22;59.22;;;;;;;14.31;79.52;101495.16;5019960;28;20477;-62
2023/05/11 10:07:34;;;;;;;103.07;59.00;;;;;;;14.34;79.83;101495.44;5018817;28;20056;-61
2023/05/11 10:10:02;;;;;;;103.78;59.15;;;;;;;14.33;79.16;101490.97;5011340;28;20061;-63
2023/05/11 10:12:29;;;;;;;101.35;58.97;;;;;;;14.34;79.06;101492.66;5009989;28;20094;-63
2023/05/11 10:15:00;;;;;;;100.85;57.10;;;;;;;14.37;78.90;101482.91;5008391;28;20092;-62
2023/05/11 10:17:29;;;;;;;103.65;60.45;;;;;;;14.40;78.81;101494.41;5018845;28;20032;-62
2023/05/11 10:19:56;;;;;;;103.28;60.28;;;;;;;14.42;77.74;101491.34;5011219;28;20067;-62
2023/05/11 10:22:24;;;;;;;99.63;57.53;;;;;;;14.44;77.56;101492.78;5019599;28;20025;-63
2023/05/11 10:24:50;;;;;;;95.93;55.78;;;;;;;14.47;77.59;101497.84;5024798;28;20025;-59
2023/05/11 10:27:17;;;;;;;90.30;53.15;;;;;;;14.50;77.39;101496.47;5011998;28;20516;-63
2023/05/11 10:29:43;;;;;;;90.32;53.20;;;;;;;14.48;76.51;101499.50;5015256;28;20111;-64
2023/05/11 10:32:09;;;;;;;89.18;52.45;;;;;;;14.52;76.63;101494.28;5014240;28;20040;-65
2023/05/11 10:34:35;;;;;;;92.88;52.53;;;;;;;14.59;76.67;101494.91;5012884;28;20029;-66
2023/05/11 10:37:01;;;;;;;89.35;50.55;;;;;;;14.62;76.45;101486.00;5012879;28;20029;-64
2023/05/11 10:39:28;;;;;;;78.57;48.25;;;;;;;14.69;76.24;101494.16;5018694;28;20029;-64
2023/05/11 10:42:18;;;;;;;84.03;47.53;;;;;;;14.76;77.08;101493.94;5030152;28;20037;-64
2023/05/11 10:45:03;;;;;;;91.32;50.78;;;;;;;14.75;76.99;101495.91;5020886;28;20041;-63
2023/05/11 10:47:57;;;;;;;93.20;52.05;;;;;;;14.79;77.36;101494.25;5018354;28;20553;-64
2023/05/11 10:50:31;;;;;;;94.22;53.30;;;;;;;14.77;77.04;101490.03;5017609;28;20064;-62
2023/05/11 10:53:36;;;;;;;94.43;54.35;;;;;;;14.81;77.02;101485.59;5026239;28;20080;-64
2023/05/11 10:56:13;;;;;;;100.72;55.63;;;;;;;14.81;76.15;101491.19;5012552;28;20033;-62
2023/05/11 10:59:04;;;;;;;91.18;53.15;;;;;;;14.89;76.78;101485.09;5011865;28;20037;-64
2023/05/11 11:01:39;;;;;;;94.70;51.85;;;;;;;14.96;76.38;101485.72;5021619;28;20029;-64
2023/05/11 11:04:10;;;;;;;92.60;51.97;;;;;;;15.01;75.89;101480.16;5015382;28;20505;-64
2023/05/11 11:06:38;;;;;;;91.97;50.85;;;;;;;15.07;75.44;101472.69;5010712;28;20504;-64
2023/05/11 11:09:14;;;;;;;94.85;52.75;;;;;;;15.08;75.21;101474.38;5012252;28;20026;-65